Latest Weather Observations for Mudgee

IDN60801

Issued at 7:32 am EDT Sunday 7 February 2016 (issued every 30 minutes, with the page automatically refreshed every 10 minutes)

About weather observations | Map of weather stations | Latest weather observations for NSW | Other Formats
Station Details ID: 062101 Name: MUDGEE AIRPORT AWS Lat: -32.56 Lon: 149.61 Height: 471.0 m
Data from the previous 72 hours. | See also: Recent months at Mudgee
Date/Time
EDT
Temp
°C
App
Temp
°C
Dew
Point
Rel
Hum
%
Delta-T
°C
Wind Press
QNH
hPa
Press
MSL
hPa
Rain
since 9 am
mm
Dir
 
Spd
km/h
Gust
km/h
Spd
kts
Gust
kts
07/07:30am 15.2 15.6 14.7 97 0.3 NE 6 7 3 4 1018.5 1016.2 0.2
07/07:00am 14.0 14.4 13.7 98 0.2 NE 4 9 2 5 1018.3 1016.0 0.2
07/06:30am 14.2 15.0 12.6 90 0.9 CALM 0 0 0 0 1018.0 1015.6 0.2
07/06:00am 15.3 16.3 13.3 88 1.1 CALM 0 0 0 0 1017.7 1015.3 0.2
07/05:30am 15.2 14.9 12.7 85 1.4 ENE 6 13 3 7 1017.5 1015.1 0.2
07/05:00am 16.9 16.1 12.8 77 2.3 SE 9 13 5 7 1017.5 1015.1 0.0
07/04:30am 17.4 15.5 12.9 75 2.6 ESE 15 20 8 11 1017.4 1015.0 0.0
07/04:00am 16.8 16.1 13.3 80 2.0 SE 9 15 5 8 1017.4 1015.0 0.0
07/03:30am 16.5 16.1 13.0 80 2.0 SSE 7 9 4 5 1017.7 1015.3 0.0
07/03:00am 17.2 16.8 13.1 77 2.3 SSE 7 13 4 7 1017.8 1015.4 0.0
07/02:30am 17.4 16.7 13.1 76 2.5 SE 9 15 5 8 1017.8 1015.4 0.0
07/02:00am 17.8 16.3 13.1 74 2.7 SE 13 19 7 10 1017.9 1015.5 0.0
07/01:30am 18.0 15.8 13.3 74 2.7 SE 17 26 9 14 1017.8 1015.4 0.0
07/01:00am 18.2 16.3 13.1 72 2.9 SE 15 22 8 12 1018.5 1016.2 0.0
07/12:30am 18.3 16.4 13.0 71 3.0 ESE 15 22 8 12 1018.3 1016.0 0.0
07/12:00am 18.8 16.2 13.2 70 3.2 SE 19 28 10 15 1018.2 1015.8 0.0
 
Date/Time
EDT
Temp
°C
App
Temp
°C
Dew
Point
Rel
Hum
%
Delta-T
°C
Wind Press
QNH
hPa
Press
MSL
hPa
Rain
since 9 am
mm
Dir
 
Spd
km/h
Gust
km/h
Spd
kts
Gust
kts
06/11:30pm 19.1 16.5 13.3 69 3.4 SE 19 28 10 15 1018.0 1015.6 0.0
06/11:00pm 19.7 17.7 13.9 69 3.4 SE 17 26 9 14 1018.2 1015.8 0.0
06/10:30pm 19.9 17.7 14.3 70 3.3 SE 19 30 10 16 1018.0 1015.6 0.0
06/10:00pm 20.0 18.6 14.6 71 3.2 SE 15 28 8 15 1018.0 1015.6 0.0
06/09:30pm 20.0 19.1 14.8 72 3.1 SE 13 22 7 12 1017.9 1015.5 0.0
06/09:00pm 19.4 18.5 14.9 75 2.7 SSE 13 15 7 8 1017.4 1015.0 0.0
06/08:30pm 20.3 19.8 14.9 71 3.2 SE 11 17 6 9 1017.4 1015.0 0.0
06/08:00pm 20.6 18.5 14.7 69 3.5 SE 19 26 10 14 1017.0 1014.7 0.0
06/07:30pm 21.2 19.6 15.1 68 3.7 SE 17 26 9 14 1016.5 1014.2 0.0
06/07:00pm 21.2 19.6 15.1 68 3.7 SE 17 26 9 14 1016.2 1013.8 0.0
06/06:30pm 22.7 20.9 15.5 64 4.4 E 19 32 10 17 1015.9 1013.5 0.0
06/06:00pm 24.0 22.0 15.0 57 5.5 ESE 19 30 10 16 1015.4 1013.0 0.0
06/05:30pm 23.8 22.3 15.3 59 5.2 ESE 17 26 9 14 1015.5 1013.1 0.0
06/05:00pm 23.9 22.2 14.6 56 5.6 SE 17 24 9 13 1015.5 1013.1 0.0
06/04:30pm 23.6 22.4 14.0 55 5.7 E 13 20 7 11 1015.7 1013.3 0.0
06/04:00pm 23.5 21.1 13.9 55 5.7 ESE 19 30 10 16 1015.8 1013.4 0.0
06/03:30pm 23.8 22.1 13.6 52 6.1 ESE 15 24 8 13 1015.9 1013.5 0.0
06/03:00pm 24.1 21.6 14.2 54 6.0 SE 20 30 11 16 1016.2 1013.8 0.0
06/02:30pm 23.7 21.7 13.8 53 5.9 SE 17 22 9 12 1016.5 1014.2 0.0
06/02:00pm 23.2 20.9 14.2 57 5.4 ESE 19 32 10 17 1017.0 1014.7 0.0
06/01:30pm 22.9 20.2 13.4 55 5.6 SE 20 30 11 16 1017.3 1014.9 0.0
06/01:00pm 23.0 20.9 13.5 55 5.6 SSE 17 26 9 14 1017.4 1015.0 0.0
06/12:30pm 23.1 20.6 14.1 57 5.4 SE 20 30 11 16 1017.7 1015.3 0.0
06/12:00pm 22.5 20.2 13.0 55 5.6 SE 17 24 9 13 1018.0 1015.6 0.0
06/11:30am 22.8 21.3 14.1 58 5.2 ESE 15 22 8 12 1018.2 1015.8 0.0
06/11:00am 22.2 20.7 14.3 61 4.7 ESE 15 26 8 14 1018.3 1016.0 0.0
06/10:30am 20.3 17.3 13.7 66 3.9 SE 22 35 12 19 1018.3 1016.0 0.0
06/10:00am 20.0 16.5 13.5 66 3.8 ESE 24 39 13 21 1018.3 1016.0 0.0
06/09:30am 19.8 15.9 13.3 66 3.8 SE 26 37 14 20 1018.3 1016.0 0.0
06/09:00am 20.1 16.7 13.8 67 3.7 SE 24 39 13 21 1018.1 1015.7 0.0
06/08:30am 19.3 16.4 13.0 67 3.6 SE 20 32 11 17 1017.9 1015.5 0.0
06/08:00am 18.5 16.0 13.4 72 3.0 SE 19 32 10 17 1017.7 1015.3 0.0
06/07:30am 18.0 15.4 13.1 73 2.8 SE 19 30 10 16 1017.3 1014.9 0.0
06/07:00am 17.7 14.4 12.8 73 2.8 SE 22 33 12 18 1016.9 1014.6 0.0
06/06:30am 17.6 14.6 12.7 73 2.8 SE 20 35 11 19 1016.6 1014.3 0.0
06/06:00am 17.5 14.8 13.0 75 2.6 SE 19 32 10 17 1016.5 1014.2 0.0
06/05:30am 17.4 14.7 12.9 75 2.6 SE 19 30 10 16 1016.5 1014.2 0.0
06/05:00am 17.3 14.1 13.0 76 2.5 SE 22 35 12 19 1016.3 1014.0 0.0
06/04:30am 17.2 14.9 13.1 77 2.3 SE 17 28 9 15 1016.4 1014.1 0.0
06/04:00am 17.5 14.7 13.2 76 2.5 SE 20 32 11 17 1016.6 1014.3 0.0
06/03:30am 17.6 14.8 13.1 75 2.6 SE 20 37 11 20 1016.8 1014.5 0.0
06/03:00am 17.3 15.6 12.4 73 2.8 ESE 13 20 7 11 1016.8 1014.5 0.0
06/02:30am 17.6 14.6 12.1 70 3.1 ESE 19 33 10 18 1017.0 1014.7 0.0
06/02:00am 18.0 15.4 12.0 68 3.4 SE 17 30 9 16 1017.3 1014.9 0.0
06/01:30am 18.2 14.6 12.0 67 3.5 SE 22 39 12 21 1017.3 1014.9 0.0
06/01:00am 18.4 15.4 12.4 68 3.4 ESE 20 28 11 15 1017.4 1015.0 0.0
06/12:30am 18.2 15.7 12.2 68 3.4 SE 17 26 9 14 1017.6 1015.2 0.0
06/12:00am 18.1 15.1 12.1 68 3.4 SE 19 30 10 16 1017.7 1015.3 0.0
 
Date/Time
EDT
Temp
°C
App
Temp
°C
Dew
Point
Rel
Hum
%
Delta-T
°C
Wind Press
QNH
hPa
Press
MSL
hPa
Rain
since 9 am
mm
Dir
 
Spd
km/h
Gust
km/h
Spd
kts
Gust
kts
05/11:30pm 18.2 14.6 12.0 67 3.5 SE 22 33 12 18 1018.0 1015.6 0.0
05/11:00pm 18.5 14.9 12.0 66 3.7 ESE 22 33 12 18 1018.0 1015.6 0.0
05/10:30pm 18.6 15.6 11.9 65 3.8 SE 19 28 10 15 1017.8 1015.4 0.0
05/10:00pm 18.9 14.6 11.9 64 4.0 SE 26 39 14 21 1017.9 1015.5 0.0
05/09:30pm 19.3 14.1 11.6 61 4.3 SE 30 52 16 28 1017.8 1015.4 0.0
05/09:25pm 19.5 14.7 11.5 60 4.5 SE 28 46 15 25 1017.8 1015.4 0.0
05/09:00pm 19.4 15.7 11.4 60 4.5 SE 22 37 12 20 1017.5 1015.1 0.0
05/08:30pm 20.1 17.1 11.8 59 4.7 SE 19 30 10 16 1017.3 1014.9 0.0
05/08:00pm 20.4 16.9 12.1 59 4.7 SE 22 33 12 18 1016.8 1014.5 0.0
05/07:30pm 21.0 17.9 11.6 55 5.3 ESE 19 35 10 19 1016.6 1014.3 0.0
05/07:00pm 21.3 17.9 11.1 52 5.7 ESE 20 35 11 19 1016.3 1014.0 0.0
05/06:30pm 21.5 18.6 12.4 56 5.3 ESE 19 30 10 16 1016.1 1013.7 0.0
05/06:00pm 21.6 17.8 12.5 56 5.3 SE 24 39 13 21 1016.0 1013.6 0.0
05/05:30pm 21.6 19.2 12.5 56 5.3 ESE 17 32 9 17 1015.9 1013.5 0.0
05/05:00pm 21.3 16.7 12.2 56 5.2 SE 28 48 15 26 1016.2 1013.8 0.0
05/04:56pm 21.5 16.8 12.1 55 5.4 SE 28 48 15 26 1016.2 1013.8 0.0
05/04:30pm 22.2 18.6 13.0 56 5.4 SE 24 43 13 23 1016.1 1013.7 0.0
05/04:00pm 21.8 18.4 12.4 55 5.4 ESE 22 30 12 16 1016.3 1014.0 0.0
05/03:30pm 22.0 17.4 12.3 54 5.6 ESE 28 44 15 24 1016.4 1014.1 0.0
05/03:00pm 21.6 17.8 12.5 56 5.3 SE 24 43 13 23 1016.7 1014.4 0.0
05/02:50pm 21.8 17.3 12.6 56 5.3 ESE 28 46 15 25 1016.7 1014.4 0.0
05/02:30pm 22.3 18.2 12.8 55 5.5 ESE 26 44 14 24 1016.5 1014.2 0.0
05/02:00pm 22.0 17.6 12.8 56 5.4 SE 28 48 15 26 1016.7 1014.4 0.0
05/01:50pm 22.1 17.5 12.4 54 5.6 ESE 28 46 15 25 1016.8 1014.5 0.0
05/01:30pm 21.4 16.9 12.5 57 5.1 SE 28 44 15 24 1016.9 1014.6 0.0
05/01:00pm 21.6 16.7 12.5 56 5.3 SE 30 41 16 22 1017.0 1014.7 0.0
05/12:33pm 22.2 17.7 12.7 55 5.5 SE 28 46 15 25 1017.2 1014.8 0.0
05/12:30pm 21.6 16.5 11.9 54 5.6 ESE 30 46 16 25 1017.3 1014.9 0.0
05/12:09pm 22.0 17.3 12.0 53 5.7 SE 28 46 15 25 1017.4 1015.0 0.0
05/12:00pm 22.9 18.6 13.1 54 5.8 SE 28 43 15 23 1017.2 1014.8 0.0
05/11:30am 21.8 16.8 12.1 54 5.6 SE 30 41 16 22 1017.3 1014.9 0.0
05/11:00am 21.8 18.2 12.9 57 5.2 ESE 24 43 13 23 1017.3 1014.9 0.0
05/10:30am 20.6 16.5 11.5 56 5.2 ESE 24 35 13 19 1017.3 1014.9 0.0
05/10:19am 20.8 16.1 12.0 57 5.0 ESE 28 46 15 25 1017.2 1014.8 0.0
05/10:00am 20.0 15.8 11.0 56 5.0 SE 24 43 13 23 1016.9 1014.6 0.0
05/09:30am 19.9 15.1 11.7 59 4.6 SE 28 39 15 21 1016.6 1014.3 0.0
05/09:00am 19.3 15.3 11.8 62 4.2 SE 24 39 13 21 1016.5 1014.2 0.2
05/08:30am 18.2 13.2 11.0 63 4.0 SE 28 46 15 25 1016.2 1013.8 0.2
05/08:18am 18.0 13.0 10.9 63 3.9 SE 28 46 15 25 1016.2 1013.8 0.2
05/08:00am 17.7 13.5 11.0 65 3.7 SE 24 41 13 22 1016.1 1013.7 0.2
05/07:30am 16.8 13.2 10.6 67 3.4 SSE 20 32 11 17 1015.9 1013.5 0.2
05/07:00am 16.2 13.9 10.3 68 3.2 SE 13 28 7 15 1015.8 1013.4 0.2
05/06:30am 16.3 13.6 10.4 68 3.2 SE 15 28 8 15 1015.5 1013.1 0.2
05/06:00am 16.4 14.6 10.7 69 3.1 SSE 11 20 6 11 1015.4 1013.0 0.2
05/05:30am 16.7 14.1 10.8 68 3.2 SE 15 28 8 15 1015.1 1012.7 0.2
05/05:00am 16.4 13.5 11.1 71 2.9 SE 17 32 9 17 1014.4 1012.1 0.2
05/04:30am 16.2 14.1 11.2 72 2.8 SE 13 24 7 13 1014.1 1011.7 0.2
05/04:00am 16.3 13.8 11.2 72 2.8 SE 15 24 8 13 1014.0 1011.6 0.2
05/03:30am 16.3 13.3 10.8 70 3.0 SE 17 28 9 15 1014.2 1011.8 0.2
05/03:00am 16.5 13.2 10.8 69 3.1 SSE 19 32 10 17 1014.5 1012.2 0.2
05/02:30am 16.2 13.4 10.1 67 3.3 SSE 15 22 8 12 1014.9 1012.5 0.2
05/02:00am 16.7 12.5 9.6 63 3.8 SE 22 43 12 23 1014.9 1012.5 0.2
05/01:30am 16.7 12.8 9.6 63 3.8 SE 20 33 11 18 1015.1 1012.7 0.2
05/01:00am 16.7 12.1 9.6 63 3.8 SSE 24 35 13 19 1015.4 1013.0 0.2
05/12:30am 17.1 14.5 9.5 61 4.1 SE 13 24 7 13 1016.1 1013.7 0.2
05/12:00am 17.4 14.0 9.3 59 4.3 SE 17 28 9 15 1016.0 1013.6 0.0
 
Date/Time
EDT
Temp
°C
App
Temp
°C
Dew
Point
Rel
Hum
%
Delta-T
°C
Wind Press
QNH
hPa
Press
MSL
hPa
Rain
since 9 am
mm
Dir
 
Spd
km/h
Gust
km/h
Spd
kts
Gust
kts
04/11:30pm 18.1 13.3 8.9 55 4.9 SE 24 44 13 24 1015.8 1013.4 0.0
04/11:17pm 18.3 13.0 9.9 58 4.6 SE 28 48 15 26 1015.7 1013.3 0.0
04/11:00pm 18.4 14.1 10.8 61 4.2 SE 24 37 13 20 1015.6 1013.2 0.0
04/10:30pm 18.6 14.7 10.9 61 4.3 SE 22 33 12 18 1015.4 1013.0 0.0
04/10:00pm 18.8 16.0 11.4 62 4.1 SE 17 24 9 13 1015.2 1012.8 0.0
04/09:30pm 19.3 16.2 12.1 63 4.1 SE 20 33 11 18 1014.7 1012.4 0.0
04/09:00pm 19.8 16.9 12.8 64 4.0 ESE 20 35 11 19 1014.3 1011.9 0.0
04/08:30pm 20.2 16.9 12.9 63 4.2 ESE 22 37 12 20 1014.1 1011.7 0.0
04/08:00pm 20.5 16.9 13.0 62 4.4 ESE 24 39 13 21 1013.7 1011.3 0.0
04/07:56pm 20.6 16.3 13.1 62 4.4 ESE 28 46 15 25 1013.7 1011.3 0.0
04/07:30pm 21.1 18.6 13.5 62 4.5 ESE 19 39 10 21 1013.3 1010.9 0.0
04/07:00pm 21.8 18.3 13.4 59 4.9 SE 24 37 13 20 1012.8 1010.4 0.0
04/06:30pm 22.1 19.2 14.0 60 4.8 SE 22 35 12 19 1012.4 1010.0 0.0
04/06:00pm 22.0 17.8 13.6 59 5.0 ESE 28 44 15 24 1012.5 1010.2 0.0
04/05:30pm 22.9 20.8 14.7 60 5.0 ESE 19 30 10 16 1012.3 1009.9 0.0
04/05:00pm 23.1 20.3 14.4 58 5.2 ESE 22 33 12 18 1012.2 1009.8 0.0
04/04:30pm 23.6 20.7 15.1 59 5.2 ESE 24 35 13 19 1012.2 1009.8 0.0
04/04:00pm 23.2 21.1 14.7 58 5.1 ESE 19 28 10 15 1012.3 1009.9 0.0
04/03:30pm 23.3 21.2 15.1 60 5.0 ESE 20 35 11 19 1012.3 1009.9 0.0
04/03:00pm 23.9 20.6 14.9 57 5.5 ESE 26 41 14 22 1012.1 1009.7 0.0
04/02:30pm 24.4 22.4 16.4 61 5.0 ESE 22 35 12 19 1012.2 1009.8 0.0
04/02:00pm 24.0 21.8 16.0 61 5.0 SE 22 33 12 18 1012.3 1009.9 0.0
04/01:30pm 23.6 21.8 16.1 62 4.6 SE 20 33 11 18 1012.4 1010.0 0.0
04/01:00pm 22.5 20.5 15.6 65 4.2 ESE 20 30 11 16 1012.7 1010.3 0.0
04/12:30pm 22.9 20.4 16.2 66 4.1 ESE 24 39 13 21 1012.9 1010.5 0.0
04/12:07pm 21.7 18.0 15.1 66 4.0 SE 28 46 15 25 1013.1 1010.7 0.0
04/12:00pm 21.9 18.4 15.5 67 3.9 SE 28 43 15 23 1013.1 1010.7 0.0
04/11:30am 21.5 17.8 15.1 67 3.9 ESE 28 46 15 25 1013.0 1010.6 0.0
04/11:28am 21.5 17.8 15.1 67 3.9 ESE 28 46 15 25 1012.9 1010.5 0.0
04/11:00am 21.7 19.3 15.5 68 3.8 ESE 22 32 12 17 1012.7 1010.3 0.0
04/10:30am 21.3 18.5 15.4 69 3.6 ESE 24 44 13 24 1012.7 1010.3 0.0
04/10:00am 21.2 18.7 15.1 68 3.7 SE 22 37 12 20 1012.3 1009.9 0.0
04/09:30am 21.1 18.3 15.4 70 3.5 ESE 24 44 13 24 1012.1 1009.7 0.0
04/09:00am 21.4 19.6 15.9 71 3.4 ESE 20 32 11 17 1011.9 1009.5 22.6
04/08:40am 20.9 17.7 15.4 71 3.3 SE 26 44 14 24 1011.6 1009.2 22.6
04/08:30am 20.6 17.4 15.4 72 3.1 SE 26 41 14 22 1011.5 1009.1 22.6
04/08:00am 20.2 19.0 16.0 77 2.6 ESE 17 28 9 15 1011.3 1008.9 22.6

Other Formats:

Comma delimited format used in spreadsheet applications
http://www.bom.gov.au/fwo/IDN60801/IDN60801.94727.axf

JavaScript Object Notation format (JSON) in row-major order
http://www.bom.gov.au/fwo/IDN60801/IDN60801.94727.json